sensor_id;sensor_type;location;lat;lon;timestamp;pressure;altitude;pressure_sealevel;temperature;humidity
18500;BME280;9379;52.134;11.576;2023-08-01T00:00:26;99429.56;;;19.46;100.00
18500;BME280;9379;52.134;11.576;2023-08-01T00:02:54;99419.38;;;19.48;100.00
18500;BME280;9379;52.134;11.576;2023-08-01T00:05:20;99417.28;;;19.50;100.00
18500;BME280;9379;52.134;11.576;2023-08-01T00:07:49;99419.72;;;19.08;100.00
18500;BME280;9379;52.134;11.576;2023-08-01T00:10:15;99417.50;;;19.73;100.00
18500;BME280;9379;52.134;11.576;2023-08-01T00:12:42;99405.16;;;19.84;100.00
18500;BME280;9379;52.134;11.576;2023-08-01T00:15:10;99398.50;;;19.18;100.00
18500;BME280;9379;52.134;11.576;2023-08-01T00:17:36;99402.59;;;19.71;100.00
18500;BME280;9379;52.134;11.576;2023-08-01T00:20:04;99392.56;;;20.15;100.00
18500;BME280;9379;52.134;11.576;2023-08-01T00:22:31;99399.47;;;19.49;100.00
18500;BME280;9379;52.134;11.576;2023-08-01T00:24:59;99386.03;;;19.24;100.00
18500;BME280;9379;52.134;11.576;2023-08-01T00:27:26;99389.56;;;19.43;100.00
18500;BME280;9379;52.134;11.576;2023-08-01T00:29:53;99390.63;;;19.85;100.00
18500;BME280;9379;52.134;11.576;2023-08-01T00:32:20;99385.66;;;20.00;100.00
18500;BME280;9379;52.134;11.576;2023-08-01T00:34:50;99371.97;;;19.84;100.00
18500;BME280;9379;52.134;11.576;2023-08-01T00:37:16;99365.81;;;19.76;100.00
18500;BME280;9379;52.134;11.576;2023-08-01T00:39:44;99327.41;;;19.81;100.00
18500;BME280;9379;52.134;11.576;2023-08-01T00:42:13;99303.88;;;19.51;100.00
18500;BME280;9379;52.134;11.576;2023-08-01T00:44:39;99297.84;;;19.74;100.00
18500;BME280;9379;52.134;11.576;2023-08-01T00:47:06;99331.53;;;19.65;100.00
18500;BME280;9379;52.134;11.576;2023-08-01T00:49:33;99333.22;;;19.41;100.00
18500;BME280;9379;52.134;11.576;2023-08-01T00:52:00;99320.72;;;19.29;100.00
18500;BME280;9379;52.134;11.576;2023-08-01T00:54:27;99305.97;;;19.49;100.00
18500;BME280;9379;52.134;11.576;2023-08-01T00:56:56;99299.09;;;19.35;100.00
18500;BME280;9379;52.134;11.576;2023-08-01T00:59:24;99306.97;;;19.37;100.00
18500;BME280;9379;52.134;11.576;2023-08-01T01:01:50;99290.94;;;19.42;100.00
18500;BME280;9379;52.134;11.576;2023-08-01T01:04:17;99281.56;;;19.44;100.00
18500;BME280;9379;52.134;11.576;2023-08-01T01:06:47;99280.84;;;19.37;100.00
18500;BME280;9379;52.134;11.576;2023-08-01T01:09:16;99276.56;;;19.48;100.00
18500;BME280;9379;52.134;11.576;2023-08-01T01:11:43;99252.84;;;19.20;100.00
18500;BME280;9379;52.134;11.576;2023-08-01T01:14:10;99256.50;;;19.44;100.00
18500;BME280;9379;52.134;11.576;2023-08-01T01:16:38;99245.50;;;19.27;100.00
18500;BME280;9379;52.134;11.576;2023-08-01T01:19:07;99240.19;;;19.20;100.00
18500;BME280;9379;52.134;11.576;2023-08-01T01:21:37;99241.94;;;19.15;100.00
18500;BME280;9379;52.134;11.576;2023-08-01T01:24:05;99221.06;;;19.10;100.00
18500;BME280;9379;52.134;11.576;2023-08-01T01:26:34;99233.63;;;19.16;100.00
18500;BME280;9379;52.134;11.576;2023-08-01T01:29:02;99235.94;;;19.31;100.00
18500;BME280;9379;52.134;11.576;2023-08-01T01:31:30;99226.06;;;19.25;100.00
18500;BME280;9379;52.134;11.576;2023-08-01T01:33:57;99223.69;;;18.99;100.00
18500;BME280;9379;52.134;11.576;2023-08-01T01:36:24;99205.47;;;18.94;100.00
18500;BME280;9379;52.134;11.576;2023-08-01T01:38:52;99210.84;;;19.31;100.00
18500;BME280;9379;52.134;11.576;2023-08-01T01:41:19;99220.56;;;19.50;100.00
18500;BME280;9379;52.134;11.576;2023-08-01T01:43:45;99214.44;;;19.43;100.00
18500;BME280;9379;52.134;11.576;2023-08-01T01:46:12;99208.97;;;19.49;100.00
18500;BME280;9379;52.134;11.576;2023-08-01T01:48:43;99212.31;;;19.81;100.00
18500;BME280;9379;52.134;11.576;2023-08-01T01:51:10;99211.41;;;19.99;100.00
18500;BME280;9379;52.134;11.576;2023-08-01T01:53:37;99205.00;;;19.70;100.00
18500;BME280;9379;52.134;11.576;2023-08-01T01:56:05;99208.78;;;19.81;100.00
18500;BME280;9379;52.134;11.576;2023-08-01T01:58:32;99206.88;;;19.70;100.00
18500;BME280;9379;52.134;11.576;2023-08-01T02:00:58;99188.84;;;19.52;100.00
18500;BME280;9379;52.134;11.576;2023-08-01T02:03:25;99190.47;;;19.71;100.00
18500;BME280;9379;52.134;11.576;2023-08-01T02:05:52;99180.88;;;19.75;100.00
18500;BME280;9379;52.134;11.576;2023-08-01T02:08:18;99186.59;;;19.79;100.00
18500;BME280;9379;52.134;11.576;2023-08-01T02:10:45;99188.59;;;19.72;100.00
18500;BME280;9379;52.134;11.576;2023-08-01T02:13:13;99181.16;;;19.37;100.00
18500;BME280;9379;52.134;11.576;2023-08-01T02:15:40;99179.22;;;19.26;100.00
18500;BME280;9379;52.134;11.576;2023-08-01T02:18:07;99182.28;;;19.30;100.00
18500;BME280;9379;52.134;11.576;2023-08-01T02:20:34;99176.22;;;19.34;100.00
18500;BME280;9379;52.134;11.576;2023-08-01T02:23:00;99176.28;;;19.46;100.00
18500;BME280;9379;52.134;11.576;2023-08-01T02:25:27;99169.09;;;19.40;100.00
18500;BME280;9379;52.134;11.576;2023-08-01T02:27:54;99165.00;;;19.37;100.00
18500;BME280;9379;52.134;11.576;2023-08-01T02:30:22;99169.72;;;19.23;100.00
18500;BME280;9379;52.134;11.576;2023-08-01T02:32:49;99171.19;;;19.38;100.00
18500;BME280;9379;52.134;11.576;2023-08-01T02:35:16;99165.47;;;19.64;100.00
18500;BME280;9379;52.134;11.576;2023-08-01T02:37:42;99160.59;;;19.54;100.00
18500;BME280;9379;52.134;11.576;2023-08-01T02:40:10;99164.41;;;19.95;100.00
18500;BME280;9379;52.134;11.576;2023-08-01T02:42:37;99153.09;;;19.75;100.00
18500;BME280;9379;52.134;11.576;2023-08-01T02:45:04;99153.75;;;19.59;100.00
18500;BME280;9379;52.134;11.576;2023-08-01T02:47:33;99148.75;;;19.74;100.00
18500;BME280;9379;52.134;11.576;2023-08-01T02:49:59;99134.34;;;19.68;100.00
18500;BME280;9379;52.134;11.576;2023-08-01T02:52:26;99140.81;;;19.91;100.00
18500;BME280;9379;52.134;11.576;2023-08-01T02:54:53;99144.38;;;20.15;100.00
18500;BME280;9379;52.134;11.576;2023-08-01T02:57:20;99136.63;;;20.06;100.00
18500;BME280;9379;52.134;11.576;2023-08-01T02:59:50;99129.22;;;20.14;100.00
18500;BME280;9379;52.134;11.576;2023-08-01T03:02:17;99142.56;;;19.85;100.00
18500;BME280;9379;52.134;11.576;2023-08-01T03:04:45;99145.75;;;19.94;100.00
18500;BME280;9379;52.134;11.576;2023-08-01T03:07:12;99141.56;;;19.68;100.00
18500;BME280;9379;52.134;11.576;2023-08-01T03:09:39;99132.72;;;19.49;100.00
18500;BME280;9379;52.134;11.576;2023-08-01T03:12:08;99142.75;;;19.60;100.00
18500;BME280;9379;52.134;11.576;2023-08-01T03:14:34;99136.41;;;19.36;100.00
18500;BME280;9379;52.134;11.576;2023-08-01T03:17:02;99134.69;;;19.53;100.00
18500;BME280;9379;52.134;11.576;2023-08-01T03:19:28;99130.47;;;19.46;100.00
18500;BME280;9379;52.134;11.576;2023-08-01T03:21:56;99128.72;;;19.51;100.00
18500;BME280;9379;52.134;11.576;2023-08-01T03:24:23;99102.00;;;19.68;100.00
18500;BME280;9379;52.134;11.576;2023-08-01T03:26:50;99103.31;;;20.13;100.00
18500;BME280;9379;52.134;11.576;2023-08-01T03:29:17;99108.94;;;20.11;100.00
18500;BME280;9379;52.134;11.576;2023-08-01T03:31:44;99099.13;;;20.17;100.00
18500;BME280;9379;52.134;11.576;2023-08-01T03:34:11;99102.59;;;19.82;100.00
18500;BME280;9379;52.134;11.576;2023-08-01T03:36:38;99089.59;;;20.14;100.00
18500;BME280;9379;52.134;11.576;2023-08-01T03:39:06;99084.91;;;20.33;100.00
18500;BME280;9379;52.134;11.576;2023-08-01T03:41:35;99069.78;;;20.55;100.00
18500;BME280;9379;52.134;11.576;2023-08-01T03:44:02;99045.03;;;20.47;100.00
18500;BME280;9379;52.134;11.576;2023-08-01T03:46:29;99058.16;;;20.55;100.00
18500;BME280;9379;52.134;11.576;2023-08-01T03:48:56;99062.28;;;20.46;100.00
18500;BME280;9379;52.134;11.576;2023-08-01T03:51:23;99054.31;;;20.51;100.00
18500;BME280;9379;52.134;11.576;2023-08-01T03:53:49;99055.94;;;20.52;100.00
18500;BME280;9379;52.134;11.576;2023-08-01T03:56:18;99056.66;;;20.47;100.00
18500;BME280;9379;52.134;11.576;2023-08-01T03:58:44;99060.41;;;20.46;100.00
18500;BME280;9379;52.134;11.576;2023-08-01T04:01:11;99055.81;;;20.47;100.00
18500;BME280;9379;52.134;11.576;2023-08-01T04:03:38;99048.31;;;20.14;100.00
18500;BME280;9379;52.134;11.576;2023-08-01T04:06:05;99054.06;;;20.29;100.00
18500;BME280;9379;52.134;11.576;2023-08-01T04:08:31;99045.97;;;20.40;100.00
18500;BME280;9379;52.134;11.576;2023-08-01T04:10:58;99034.00;;;20.25;100.00
18500;BME280;9379;52.134;11.576;2023-08-01T04:13:26;99022.28;;;20.19;100.00
18500;BME280;9379;52.134;11.576;2023-08-01T04:15:53;99007.66;;;19.92;100.00
18500;BME280;9379;52.134;11.576;2023-08-01T04:18:20;99013.25;;;20.14;100.00
18500;BME280;9379;52.134;11.576;2023-08-01T04:20:47;99006.94;;;20.20;100.00
18500;BME280;9379;52.134;11.576;2023-08-01T04:23:13;99007.19;;;19.95;100.00
18500;BME280;9379;52.134;11.576;2023-08-01T04:25:40;99003.50;;;20.48;100.00
18500;BME280;9379;52.134;11.576;2023-08-01T04:28:07;99016.19;;;20.12;100.00
18500;BME280;9379;52.134;11.576;2023-08-01T04:30:35;99015.72;;;20.27;100.00
18500;BME280;9379;52.134;11.576;2023-08-01T04:33:03;99014.78;;;20.21;100.00
18500;BME280;9379;52.134;11.576;2023-08-01T04:35:30;99012.91;;;19.98;100.00
18500;BME280;9379;52.134;11.576;2023-08-01T04:37:57;99003.53;;;20.13;100.00
18500;BME280;9379;52.134;11.576;2023-08-01T04:40:26;99004.00;;;20.09;100.00
18500;BME280;9379;52.134;11.576;2023-08-01T04:42:54;98991.47;;;20.03;100.00
18500;BME280;9379;52.134;11.576;2023-08-01T04:45:21;98982.31;;;20.16;100.00
18500;BME280;9379;52.134;11.576;2023-08-01T04:47:49;98974.16;;;20.39;100.00
18500;BME280;9379;52.134;11.576;2023-08-01T04:50:16;98975.41;;;20.60;100.00
18500;BME280;9379;52.134;11.576;2023-08-01T04:52:43;98969.97;;;20.32;100.00
18500;BME280;9379;52.134;11.576;2023-08-01T04:55:09;98966.56;;;20.25;100.00
18500;BME280;9379;52.134;11.576;2023-08-01T04:57:36;98984.25;;;20.32;100.00
18500;BME280;9379;52.134;11.576;2023-08-01T05:00:04;98985.03;;;19.81;100.00
18500;BME280;9379;52.134;11.576;2023-08-01T05:02:30;98994.19;;;19.92;100.00
18500;BME280;9379;52.134;11.576;2023-08-01T05:04:59;98999.34;;;19.93;100.00
18500;BME280;9379;52.134;11.576;2023-08-01T05:07:25;98998.03;;;20.07;100.00
18500;BME280;9379;52.134;11.576;2023-08-01T05:09:52;99010.34;;;20.03;100.00
18500;BME280;9379;52.134;11.576;2023-08-01T05:12:19;99007.19;;;19.95;100.00
18500;BME280;9379;52.134;11.576;2023-08-01T05:14:46;99009.53;;;20.03;100.00
18500;BME280;9379;52.134;11.576;2023-08-01T05:17:12;99012.09;;;19.98;100.00
18500;BME280;9379;52.134;11.576;2023-08-01T05:19:39;99010.69;;;19.95;100.00
18500;BME280;9379;52.134;11.576;2023-08-01T05:22:07;98989.94;;;20.19;100.00
18500;BME280;9379;52.134;11.576;2023-08-01T05:24:34;98970.06;;;20.37;100.00
18500;BME280;9379;52.134;11.576;2023-08-01T05:27:01;98979.59;;;20.28;100.00
18500;BME280;9379;52.134;11.576;2023-08-01T05:29:28;98972.66;;;20.44;100.00
18500;BME280;9379;52.134;11.576;2023-08-01T05:31:54;98962.03;;;20.02;100.00
18500;BME280;9379;52.134;11.576;2023-08-01T05:34:21;98956.84;;;20.12;100.00
18500;BME280;9379;52.134;11.576;2023-08-01T05:36:48;98953.75;;;19.92;100.00
18500;BME280;9379;52.134;11.576;2023-08-01T05:39:17;98946.78;;;20.07;100.00
18500;BME280;9379;52.134;11.576;2023-08-01T05:41:44;98931.69;;;20.35;100.00
18500;BME280;9379;52.134;11.576;2023-08-01T05:44:11;98927.94;;;20.36;100.00
18500;BME280;9379;52.134;11.576;2023-08-01T05:46:37;98943.75;;;20.84;100.00
18500;BME280;9379;52.134;11.576;2023-08-01T05:49:04;98939.28;;;21.23;100.00
18500;BME280;9379;52.134;11.576;2023-08-01T05:51:31;98945.03;;;21.27;100.00
18500;BME280;9379;52.134;11.576;2023-08-01T05:53:58;98962.53;;;21.24;100.00
18500;BME280;9379;52.134;11.576;2023-08-01T05:56:26;98972.91;;;20.99;100.00
18500;BME280;9379;52.134;11.576;2023-08-01T05:58:53;98975.09;;;20.85;100.00
18500;BME280;9379;52.134;11.576;2023-08-01T06:01:19;98979.44;;;20.46;100.00
18500;BME280;9379;52.134;11.576;2023-08-01T06:03:47;98984.84;;;20.46;100.00
18500;BME280;9379;52.134;11.576;2023-08-01T06:06:13;98976.91;;;20.28;100.00
18500;BME280;9379;52.134;11.576;2023-08-01T06:08:40;98984.69;;;20.64;100.00
18500;BME280;9379;52.134;11.576;2023-08-01T06:11:07;98981.00;;;20.42;100.00
18500;BME280;9379;52.134;11.576;2023-08-01T06:13:35;98990.25;;;20.23;100.00
18500;BME280;9379;52.134;11.576;2023-08-01T06:16:02;98992.59;;;20.43;100.00
18500;BME280;9379;52.134;11.576;2023-08-01T06:18:29;98992.56;;;20.54;100.00
18500;BME280;9379;52.134;11.576;2023-08-01T06:20:56;98983.00;;;20.75;100.00
18500;BME280;9379;52.134;11.576;2023-08-01T06:23:22;98986.41;;;20.99;100.00
18500;BME280;9379;52.134;11.576;2023-08-01T06:25:49;98973.16;;;20.97;100.00
18500;BME280;9379;52.134;11.576;2023-08-01T06:28:16;98968.00;;;20.67;100.00
18500;BME280;9379;52.134;11.576;2023-08-01T06:30:45;98973.72;;;21.00;100.00
18500;BME280;9379;52.134;11.576;2023-08-01T06:33:12;98974.34;;;20.73;100.00
18500;BME280;9379;52.134;11.576;2023-08-01T06:35:38;98982.84;;;20.53;100.00
18500;BME280;9379;52.134;11.576;2023-08-01T06:38:05;98963.94;;;20.82;100.00
18500;BME280;9379;52.134;11.576;2023-08-01T06:40:32;98973.91;;;20.81;100.00
18500;BME280;9379;52.134;11.576;2023-08-01T06:42:58;98961.03;;;20.31;100.00
18500;BME280;9379;52.134;11.576;2023-08-01T06:45:25;98958.00;;;20.28;100.00
18500;BME280;9379;52.134;11.576;2023-08-01T06:47:53;98965.72;;;20.48;100.00
18500;BME280;9379;52.134;11.576;2023-08-01T06:50:20;98960.88;;;20.61;100.00
18500;BME280;9379;52.134;11.576;2023-08-01T06:52:47;98957.19;;;20.67;100.00
18500;BME280;9379;52.134;11.576;2023-08-01T06:55:14;98938.31;;;20.27;100.00
18500;BME280;9379;52.134;11.576;2023-08-01T06:57:40;98946.38;;;20.51;100.00
18500;BME280;9379;52.134;11.576;2023-08-01T07:00:08;98950.22;;;20.55;100.00
18500;BME280;9379;52.134;11.576;2023-08-01T07:02:36;98947.75;;;20.42;100.00
18500;BME280;9379;52.134;11.576;2023-08-01T07:05:05;98957.47;;;20.83;100.00
18500;BME280;9379;52.134;11.576;2023-08-01T07:07:31;98952.00;;;20.49;100.00
18500;BME280;9379;52.134;11.576;2023-08-01T07:09:58;98949.69;;;20.69;100.00
18500;BME280;9379;52.134;11.576;2023-08-01T07:12:25;98961.44;;;20.92;100.00
18500;BME280;9379;52.134;11.576;2023-08-01T07:14:52;98953.69;;;20.67;100.00
18500;BME280;9379;52.134;11.576;2023-08-01T07:17:19;98956.47;;;20.44;100.00
18500;BME280;9379;52.134;11.576;2023-08-01T07:19:45;98968.19;;;20.49;100.00
18500;BME280;9379;52.134;11.576;2023-08-01T07:22:13;98970.78;;;20.32;100.00
18500;BME280;9379;52.134;11.576;2023-08-01T07:24:40;98976.78;;;20.23;100.00
18500;BME280;9379;52.134;11.576;2023-08-01T07:27:07;98966.72;;;20.58;100.00
18500;BME280;9379;52.134;11.576;2023-08-01T07:29:34;98955.56;;;20.66;100.00
18500;BME280;9379;52.134;11.576;2023-08-01T07:32:01;98971.59;;;20.45;100.00
18500;BME280;9379;52.134;11.576;2023-08-01T07:34:27;98971.44;;;20.63;100.00
18500;BME280;9379;52.134;11.576;2023-08-01T07:36:54;98980.09;;;20.65;100.00
18500;BME280;9379;52.134;11.576;2023-08-01T07:39:22;98980.19;;;20.70;100.00
18500;BME280;9379;52.134;11.576;2023-08-01T07:41:49;98997.56;;;20.74;100.00
18500;BME280;9379;52.134;11.576;2023-08-01T07:44:16;98994.81;;;20.46;100.00
18500;BME280;9379;52.134;11.576;2023-08-01T07:46:43;99006.69;;;20.45;100.00
18500;BME280;9379;52.134;11.576;2023-08-01T07:49:09;99015.41;;;20.75;100.00
18500;BME280;9379;52.134;11.576;2023-08-01T07:51:36;99020.03;;;20.91;100.00
18500;BME280;9379;52.134;11.576;2023-08-01T07:54:03;99035.41;;;20.39;100.00
18500;BME280;9379;52.134;11.576;2023-08-01T07:56:31;99042.91;;;19.90;100.00
18500;BME280;9379;52.134;11.576;2023-08-01T07:58:58;99057.94;;;19.44;100.00
18500;BME280;9379;52.134;11.576;2023-08-01T08:01:25;99049.50;;;19.83;100.00
18500;BME280;9379;52.134;11.576;2023-08-01T08:03:51;99044.56;;;19.79;100.00
18500;BME280;9379;52.134;11.576;2023-08-01T08:06:18;99046.31;;;19.74;100.00
18500;BME280;9379;52.134;11.576;2023-08-01T08:08:46;99060.50;;;19.69;100.00
18500;BME280;9379;52.134;11.576;2023-08-01T08:11:13;99066.72;;;19.70;100.00
18500;BME280;9379;52.134;11.576;2023-08-01T08:13:42;99056.63;;;19.89;100.00
18500;BME280;9379;52.134;11.576;2023-08-01T08:16:09;99042.81;;;20.08;100.00
18500;BME280;9379;52.134;11.576;2023-08-01T08:18:36;99036.03;;;20.18;100.00
18500;BME280;9379;52.134;11.576;2023-08-01T08:21:03;99057.69;;;20.34;100.00
18500;BME280;9379;52.134;11.576;2023-08-01T08:23:30;99040.59;;;20.29;100.00
18500;BME280;9379;52.134;11.576;2023-08-01T08:25:56;99048.78;;;19.99;100.00
18500;BME280;9379;52.134;11.576;2023-08-01T08:28:28;99054.09;;;19.94;100.00
18500;BME280;9379;52.134;11.576;2023-08-01T08:30:57;99053.03;;;20.06;100.00
18500;BME280;9379;52.134;11.576;2023-08-01T08:33:24;99064.06;;;20.17;100.00
18500;BME280;9379;52.134;11.576;2023-08-01T08:35:51;99063.81;;;20.06;100.00
18500;BME280;9379;52.134;11.576;2023-08-01T08:38:18;99070.28;;;20.05;100.00
18500;BME280;9379;52.134;11.576;2023-08-01T08:40:55;99075.63;;;19.82;100.00
18500;BME280;9379;52.134;11.576;2023-08-01T08:43:26;99069.53;;;19.98;100.00
18500;BME280;9379;52.134;11.576;2023-08-01T08:45:57;99087.50;;;20.16;100.00
18500;BME280;9379;52.134;11.576;2023-08-01T08:48:24;99081.88;;;20.29;100.00
18500;BME280;9379;52.134;11.576;2023-08-01T08:50:52;99081.28;;;19.80;100.00
18500;BME280;9379;52.134;11.576;2023-08-01T08:53:21;99079.59;;;19.79;100.00
18500;BME280;9379;52.134;11.576;2023-08-01T08:55:48;99078.13;;;20.19;100.00
18500;BME280;9379;52.134;11.576;2023-08-01T08:58:15;99070.31;;;19.64;100.00
18500;BME280;9379;52.134;11.576;2023-08-01T09:00:43;99092.38;;;19.72;100.00
18500;BME280;9379;52.134;11.576;2023-08-01T09:03:11;99066.56;;;19.65;100.00
18500;BME280;9379;52.134;11.576;2023-08-01T09:05:44;99087.59;;;19.98;100.00
18500;BME280;9379;52.134;11.576;2023-08-01T09:08:16;99089.53;;;19.67;100.00
18500;BME280;9379;52.134;11.576;2023-08-01T09:10:44;99087.34;;;19.88;100.00
18500;BME280;9379;52.134;11.576;2023-08-01T09:13:11;99083.25;;;19.85;100.00
18500;BME280;9379;52.134;11.576;2023-08-01T09:15:40;99091.72;;;19.47;100.00
18500;BME280;9379;52.134;11.576;2023-08-01T09:18:07;99081.13;;;19.34;100.00
18500;BME280;9379;52.134;11.576;2023-08-01T09:20:42;99091.44;;;19.37;100.00
18500;BME280;9379;52.134;11.576;2023-08-01T09:23:09;99099.91;;;19.82;100.00
18500;BME280;9379;52.134;11.576;2023-08-01T09:25:36;99115.22;;;19.70;100.00
18500;BME280;9379;52.134;11.576;2023-08-01T09:28:04;99109.63;;;19.53;100.00
18500;BME280;9379;52.134;11.576;2023-08-01T09:30:45;99116.91;;;19.83;100.00
18500;BME280;9379;52.134;11.576;2023-08-01T09:33:12;99123.84;;;19.30;100.00
18500;BME280;9379;52.134;11.576;2023-08-01T09:35:41;99118.50;;;19.12;100.00
18500;BME280;9379;52.134;11.576;2023-08-01T09:38:10;99124.84;;;19.47;100.00
18500;BME280;9379;52.134;11.576;2023-08-01T09:40:37;99124.31;;;19.09;100.00
18500;BME280;9379;52.134;11.576;2023-08-01T09:43:04;99112.00;;;18.83;100.00
18500;BME280;9379;52.134;11.576;2023-08-01T09:45:30;99119.25;;;18.82;100.00
18500;BME280;9379;52.134;11.576;2023-08-01T09:47:59;99123.72;;;19.07;100.00
18500;BME280;9379;52.134;11.576;2023-08-01T09:50:27;99120.22;;;19.06;100.00
18500;BME280;9379;52.134;11.576;2023-08-01T09:52:55;99113.28;;;18.99;100.00
18500;BME280;9379;52.134;11.576;2023-08-01T09:55:26;99116.13;;;19.04;100.00
18500;BME280;9379;52.134;11.576;2023-08-01T09:57:57;99118.84;;;19.34;100.00
18500;BME280;9379;52.134;11.576;2023-08-01T10:00:25;99105.03;;;19.12;100.00
18500;BME280;9379;52.134;11.576;2023-08-01T10:02:52;99126.19;;;19.27;100.00
18500;BME280;9379;52.134;11.576;2023-08-01T10:05:20;99124.50;;;19.86;100.00
18500;BME280;9379;52.134;11.576;2023-08-01T10:07:48;99126.72;;;19.77;100.00
18500;BME280;9379;52.134;11.576;2023-08-01T10:10:19;99121.56;;;19.45;100.00
18500;BME280;9379;52.134;11.576;2023-08-01T10:12:47;99118.00;;;20.05;100.00
18500;BME280;9379;52.134;11.576;2023-08-01T10:15:15;99121.94;;;20.02;100.00
18500;BME280;9379;52.134;11.576;2023-08-01T10:17:42;99116.72;;;20.54;100.00
18500;BME280;9379;52.134;11.576;2023-08-01T10:20:11;99113.31;;;20.59;100.00
18500;BME280;9379;52.134;11.576;2023-08-01T10:22:39;99113.53;;;20.69;100.00
18500;BME280;9379;52.134;11.576;2023-08-01T10:25:07;99105.75;;;21.24;100.00
18500;BME280;9379;52.134;11.576;2023-08-01T10:27:36;99106.84;;;21.85;100.00
18500;BME280;9379;52.134;11.576;2023-08-01T10:30:04;99080.66;;;22.20;100.00
18500;BME280;9379;52.134;11.576;2023-08-01T10:32:33;99087.69;;;22.04;100.00
18500;BME280;9379;52.134;11.576;2023-08-01T10:35:00;99096.06;;;22.02;100.00
18500;BME280;9379;52.134;11.576;2023-08-01T10:37:27;99094.19;;;22.97;98.58
18500;BME280;9379;52.134;11.576;2023-08-01T10:40:06;99099.53;;;21.24;100.00
18500;BME280;9379;52.134;11.576;2023-08-01T10:42:39;99089.66;;;21.18;100.00
18500;BME280;9379;52.134;11.576;2023-08-01T10:45:07;99098.19;;;21.83;100.00
18500;BME280;9379;52.134;11.576;2023-08-01T10:47:34;99114.97;;;21.69;100.00
18500;BME280;9379;52.134;11.576;2023-08-01T10:50:00;99118.16;;;21.99;100.00
18500;BME280;9379;52.134;11.576;2023-08-01T10:52:28;99099.00;;;22.73;100.00
18500;BME280;9379;52.134;11.576;2023-08-01T10:54:56;99109.13;;;21.60;100.00
18500;BME280;9379;52.134;11.576;2023-08-01T10:57:24;99113.72;;;20.91;100.00
18500;BME280;9379;52.134;11.576;2023-08-01T10:59:52;99101.94;;;21.09;100.00
18500;BME280;9379;52.134;11.576;2023-08-01T11:02:20;99107.00;;;21.62;100.00
18500;BME280;9379;52.134;11.576;2023-08-01T11:04:55;99113.16;;;21.74;100.00
18500;BME280;9379;52.134;11.576;2023-08-01T11:07:22;99096.22;;;22.29;100.00
18500;BME280;9379;52.134;11.576;2023-08-01T11:09:48;99111.03;;;21.76;100.00
18500;BME280;9379;52.134;11.576;2023-08-01T11:12:15;99112.44;;;21.96;100.00
18500;BME280;9379;52.134;11.576;2023-08-01T11:14:42;99117.13;;;22.34;98.86
18500;BME280;9379;52.134;11.576;2023-08-01T11:17:11;99109.41;;;22.81;99.22
18500;BME280;9379;52.134;11.576;2023-08-01T11:19:39;99096.88;;;22.20;95.62
18500;BME280;9379;52.134;11.576;2023-08-01T11:22:09;99122.25;;;22.52;96.80
18500;BME280;9379;52.134;11.576;2023-08-01T11:24:36;99103.28;;;23.13;91.64
18500;BME280;9379;52.134;11.576;2023-08-01T11:27:04;99110.44;;;22.97;93.45
18500;BME280;9379;52.134;11.576;2023-08-01T11:29:31;99110.06;;;22.50;91.11
18500;BME280;9379;52.134;11.576;2023-08-01T11:32:05;99114.72;;;23.42;96.22
18500;BME280;9379;52.134;11.576;2023-08-01T11:34:40;99097.28;;;23.86;91.17
18500;BME280;9379;52.134;11.576;2023-08-01T11:37:09;99104.84;;;23.31;86.33
18500;BME280;9379;52.134;11.576;2023-08-01T11:39:37;99099.59;;;22.80;90.75
18500;BME280;9379;52.134;11.576;2023-08-01T11:42:04;99100.78;;;23.06;91.00
18500;BME280;9379;52.134;11.576;2023-08-01T11:44:31;99104.84;;;23.84;90.62
18500;BME280;9379;52.134;11.576;2023-08-01T11:46:58;99101.38;;;23.89;87.73
18500;BME280;9379;52.134;11.576;2023-08-01T11:49:25;99106.16;;;23.77;85.79
18500;BME280;9379;52.134;11.576;2023-08-01T11:51:53;99092.19;;;23.95;85.73
18500;BME280;9379;52.134;11.576;2023-08-01T11:54:20;99076.22;;;23.99;88.38
18500;BME280;9379;52.134;11.576;2023-08-01T11:56:47;99090.34;;;24.01;82.66
18500;BME280;9379;52.134;11.576;2023-08-01T11:59:15;99085.09;;;23.35;86.62
18500;BME280;9379;52.134;11.576;2023-08-01T12:01:43;99112.44;;;23.07;87.16
18500;BME280;9379;52.134;11.576;2023-08-01T12:04:10;99097.59;;;22.49;85.90
18500;BME280;9379;52.134;11.576;2023-08-01T12:06:37;99110.16;;;22.21;86.69
18500;BME280;9379;52.134;11.576;2023-08-01T12:09:09;99097.50;;;23.53;86.00
18500;BME280;9379;52.134;11.576;2023-08-01T12:11:36;99107.66;;;23.95;82.98
18500;BME280;9379;52.134;11.576;2023-08-01T12:14:05;99114.22;;;23.99;83.95
18500;BME280;9379;52.134;11.576;2023-08-01T12:16:33;99108.41;;;23.58;84.94
18500;BME280;9379;52.134;11.576;2023-08-01T12:19:00;99100.44;;;23.73;82.57
18500;BME280;9379;52.134;11.576;2023-08-01T12:21:27;99115.53;;;23.64;80.95
18500;BME280;9379;52.134;11.576;2023-08-01T12:23:54;99106.19;;;23.55;79.40
18500;BME280;9379;52.134;11.576;2023-08-01T12:26:22;99106.03;;;24.31;79.51
18500;BME280;9379;52.134;11.576;2023-08-01T12:28:49;99114.72;;;23.96;81.38
18500;BME280;9379;52.134;11.576;2023-08-01T12:31:16;99109.78;;;23.61;81.73
18500;BME280;9379;52.134;11.576;2023-08-01T12:33:44;99112.88;;;23.20;78.54
18500;BME280;9379;52.134;11.576;2023-08-01T12:36:10;99108.97;;;24.24;80.64
18500;BME280;9379;52.134;11.576;2023-08-01T12:38:37;99102.44;;;24.62;76.89
18500;BME280;9379;52.134;11.576;2023-08-01T12:41:07;99120.19;;;24.33;75.98
18500;BME280;9379;52.134;11.576;2023-08-01T12:43:37;99117.97;;;24.67;77.48
18500;BME280;9379;52.134;11.576;2023-08-01T12:46:03;99121.66;;;24.51;76.59
18500;BME280;9379;52.134;11.576;2023-08-01T12:48:30;99105.47;;;24.29;77.14
18500;BME280;9379;52.134;11.576;2023-08-01T12:50:57;99122.09;;;24.32;78.42